createdAt,value
2023-03-13T00:02:47.265Z,9.80
2023-03-13T00:06:49.084Z,9.80
2023-03-13T00:10:50.847Z,9.80
2023-03-13T00:14:52.642Z,9.80
2023-03-13T00:18:54.937Z,9.80
2023-03-13T00:22:56.941Z,9.80
2023-03-13T00:27:03.271Z,9.80
2023-03-13T00:31:16.871Z,9.80
2023-03-13T00:35:19.239Z,9.80
2023-03-13T00:39:21.176Z,9.90
2023-03-13T00:43:23.001Z,9.90
2023-03-13T00:47:25.135Z,9.90
2023-03-13T00:51:27.609Z,9.90
2023-03-13T00:55:29.522Z,9.90
2023-03-13T00:59:31.242Z,9.90
2023-03-13T01:03:33.086Z,10.00
2023-03-13T01:07:34.894Z,10.00
2023-03-13T01:11:38.680Z,10.00
2023-03-13T01:15:40.550Z,10.00
2023-03-13T01:19:42.288Z,10.10
2023-03-13T01:23:44.092Z,10.10
2023-03-13T01:27:45.836Z,10.10
2023-03-13T01:31:47.829Z,10.10
2023-03-13T01:35:50.133Z,10.10
2023-03-13T01:39:52.011Z,10.10
2023-03-13T01:43:55.593Z,10.10
2023-03-13T01:47:57.504Z,10.10
2023-03-13T01:52:03.947Z,10.00
2023-03-13T01:56:07.697Z,10.10
2023-03-13T02:00:30.840Z,10.10
2023-03-13T02:04:37.574Z,10.10
2023-03-13T02:08:44.664Z,10.10
2023-03-13T02:12:46.414Z,10.00
2023-03-13T02:16:51.963Z,9.90
2023-03-13T02:20:56.681Z,9.90
2023-03-13T02:25:35.807Z,9.80
2023-03-13T02:29:37.677Z,9.70
2023-03-13T02:33:40.649Z,9.60
2023-03-13T02:37:42.996Z,9.50
2023-03-13T02:41:44.782Z,9.50
2023-03-13T02:46:10.953Z,9.40
2023-03-13T02:50:13.283Z,9.50
2023-03-13T02:54:20.463Z,9.60
2023-03-13T02:58:25.623Z,9.60
2023-03-13T03:02:27.644Z,9.70
2023-03-13T03:06:35.766Z,9.70
2023-03-13T03:10:43.779Z,9.80
2023-03-13T03:14:51.735Z,9.80
2023-03-13T03:18:53.529Z,9.80
2023-03-13T03:23:01.861Z,9.80
2023-03-13T03:27:07.108Z,9.80
2023-03-13T03:31:13.741Z,9.70
2023-03-13T03:35:15.691Z,9.60
2023-03-13T03:39:17.444Z,9.60
2023-03-13T03:43:19.240Z,9.60
2023-03-13T03:47:21.045Z,9.60
2023-03-13T03:51:23.026Z,9.60
2023-03-13T03:55:24.895Z,9.60
2023-03-13T03:59:26.684Z,9.60
2023-03-13T04:03:28.523Z,9.60
2023-03-13T04:07:30.447Z,9.70
2023-03-13T04:11:32.186Z,9.70
2023-03-13T04:15:33.976Z,9.70
2023-03-13T04:19:35.754Z,9.70
2023-03-13T04:23:37.551Z,9.70
2023-03-13T04:27:39.595Z,9.70
2023-03-13T04:31:41.439Z,9.70
2023-03-13T04:35:43.922Z,9.60
2023-03-13T04:39:45.772Z,9.60
2023-03-13T04:43:47.544Z,9.60
2023-03-13T04:47:49.428Z,9.60
2023-03-13T04:51:51.305Z,9.60
2023-03-13T04:55:53.167Z,9.70
2023-03-13T04:59:55.103Z,9.70
2023-03-13T05:03:56.914Z,9.80
2023-03-13T05:07:58.704Z,9.80
2023-03-13T05:12:00.623Z,9.80
2023-03-13T05:16:03.820Z,9.80
2023-03-13T05:20:08.266Z,9.90
2023-03-13T05:24:10.088Z,9.90
2023-03-13T05:28:12.097Z,9.90
2023-03-13T05:32:13.903Z,10.00
2023-03-13T05:36:15.803Z,10.10
2023-03-13T05:40:17.843Z,10.10
2023-03-13T05:44:19.809Z,10.20
2023-03-13T05:48:21.634Z,10.30
2023-03-13T05:52:23.463Z,10.30
2023-03-13T05:56:25.249Z,10.40
2023-03-13T06:00:31.054Z,10.40
2023-03-13T06:04:38.056Z,10.50
2023-03-13T06:08:40.224Z,10.50
2023-03-13T06:12:42.358Z,10.60
2023-03-13T06:16:46.878Z,10.70
2023-03-13T06:20:49.900Z,10.70
2023-03-13T06:24:52.116Z,10.80
2023-03-13T06:28:53.985Z,10.90
2023-03-13T06:32:56.168Z,11.00
2023-03-13T06:36:58.802Z,11.10
2023-03-13T06:41:00.722Z,11.20
2023-03-13T06:45:03.498Z,11.30
2023-03-13T06:49:06.130Z,11.40
2023-03-13T06:53:08.059Z,11.50
2023-03-13T06:57:09.805Z,11.60
2023-03-13T07:01:16.023Z,11.70
2023-03-13T07:05:17.935Z,11.80
2023-03-13T07:09:20.170Z,11.80
2023-03-13T07:13:22.297Z,11.90
2023-03-13T07:17:24.141Z,12.00
2023-03-13T07:21:31.982Z,12.00
2023-03-13T07:25:33.757Z,12.00
2023-03-13T07:29:35.571Z,12.00
2023-03-13T07:33:37.692Z,12.00
2023-03-13T07:37:39.660Z,11.90
2023-03-13T07:41:42.315Z,11.80
2023-03-13T07:45:55.262Z,11.70
2023-03-13T07:49:57.045Z,11.60
2023-03-13T07:53:58.821Z,11.60
2023-03-13T07:58:00.688Z,11.70
2023-03-13T08:02:05.378Z,11.60
2023-03-13T08:06:12.818Z,11.60
2023-03-13T08:10:14.655Z,11.60
2023-03-13T08:14:16.621Z,11.60
2023-03-13T08:18:18.470Z,11.60
2023-03-13T08:22:20.238Z,11.60
2023-03-13T08:26:23.331Z,11.60
2023-03-13T08:30:25.124Z,11.60
2023-03-13T08:34:26.916Z,11.60
2023-03-13T08:38:28.664Z,11.60
2023-03-13T08:42:30.494Z,11.60
2023-03-13T08:46:43.097Z,11.70
2023-03-13T08:50:44.907Z,11.90
2023-03-13T08:54:50.844Z,12.00
2023-03-13T08:58:54.330Z,12.10
2023-03-13T09:02:58.261Z,12.20
2023-03-13T09:07:00.162Z,12.30
2023-03-13T09:11:04.714Z,12.40
2023-03-13T09:15:07.633Z,12.40
2023-03-13T09:19:09.452Z,12.40
2023-03-13T09:23:11.289Z,12.40
2023-03-13T09:27:13.132Z,12.40
2023-03-13T09:31:30.142Z,12.40
2023-03-13T09:35:35.192Z,12.40
2023-03-13T09:39:37.420Z,12.50
2023-03-13T09:44:09.596Z,12.60
2023-03-13T09:48:29.617Z,12.50
2023-03-13T09:52:36.464Z,12.60
2023-03-13T09:57:04.108Z,12.80
2023-03-13T10:01:06.180Z,12.90
2023-03-13T10:05:22.992Z,13.10
2023-03-13T10:09:42.195Z,13.20
2023-03-13T10:14:10.777Z,13.40
2023-03-13T10:18:23.674Z,13.50
2023-03-13T10:22:30.385Z,13.50
2023-03-13T10:26:48.619Z,13.50
2023-03-13T10:30:55.171Z,13.60
2023-03-13T10:35:04.080Z,13.70
2023-03-13T10:39:05.900Z,13.90
2023-03-13T10:43:22.404Z,14.00
2023-03-13T10:47:24.490Z,14.10
2023-03-13T10:51:40.675Z,14.30
2023-03-13T10:55:43.317Z,14.40
2023-03-13T10:59:52.074Z,14.50
2023-03-13T11:03:55.977Z,14.60
2023-03-13T11:07:58.073Z,14.80
2023-03-13T11:12:17.527Z,15.00
2023-03-13T11:16:28.895Z,15.00
2023-03-13T11:20:38.789Z,15.30
2023-03-13T11:25:11.574Z,15.40
2023-03-13T11:29:38.805Z,15.40
2023-03-13T11:34:04.774Z,15.30
2023-03-13T11:38:36.550Z,15.20
2023-03-13T11:42:46.706Z,15.20
2023-03-13T11:47:24.908Z,15.00
2023-03-13T11:52:09.969Z,14.90
2023-03-13T11:56:21.992Z,14.80
2023-03-13T12:00:47.911Z,14.80
2023-03-13T12:05:03.518Z,14.70
2023-03-13T12:09:14.836Z,14.70
2023-03-13T12:13:38.844Z,14.70
2023-03-13T12:18:12.632Z,14.80
2023-03-13T12:22:50.981Z,14.90
2023-03-13T12:27:15.886Z,15.00
2023-03-13T12:31:39.585Z,15.30
2023-03-13T12:35:57.248Z,15.70
2023-03-13T12:40:31.830Z,16.00
2023-03-13T12:44:33.966Z,16.20
2023-03-13T12:49:13.639Z,16.30
2023-03-13T12:53:26.204Z,16.40
2023-03-13T12:58:15.377Z,16.40
2023-03-13T13:02:21.339Z,16.40
2023-03-13T13:06:23.479Z,16.50
2023-03-13T13:10:26.388Z,16.60
2023-03-13T13:14:28.182Z,16.70
2023-03-13T13:18:31.635Z,16.70
2023-03-13T13:22:42.268Z,17.00
2023-03-13T13:26:49.087Z,17.50
2023-03-13T13:30:54.537Z,17.80
2023-03-13T13:35:36.552Z,18.00
2023-03-13T13:40:10.108Z,18.30
2023-03-13T13:44:26.889Z,18.20
2023-03-13T13:48:35.902Z,18.00
2023-03-13T13:52:41.704Z,18.00
2023-03-13T13:56:48.198Z,17.90
2023-03-13T14:00:59.594Z,17.70
2023-03-13T14:05:09.007Z,17.50
2023-03-13T14:09:30.352Z,17.50
2023-03-13T14:13:32.397Z,17.30
2023-03-13T14:17:51.109Z,17.30
2023-03-13T14:22:00.190Z,17.30
2023-03-13T14:26:27.172Z,17.50
2023-03-13T14:30:29.315Z,17.60
2023-03-13T14:34:32.805Z,17.60
2023-03-13T14:38:34.944Z,17.40
2023-03-13T14:42:44.027Z,17.40
2023-03-13T14:46:46.122Z,17.30
2023-03-13T14:50:49.234Z,17.30
2023-03-13T14:55:06.564Z,17.40
2023-03-13T14:59:22.886Z,17.40
2023-03-13T15:03:30.297Z,17.50
2023-03-13T15:07:48.422Z,17.40
2023-03-13T15:12:00.826Z,17.40
2023-03-13T15:16:04.139Z,17.40
2023-03-13T15:20:09.856Z,17.40
2023-03-13T15:24:16.201Z,17.30
2023-03-13T15:28:23.587Z,17.30
2023-03-13T15:32:40.286Z,17.20
2023-03-13T15:36:42.686Z,17.20
2023-03-13T15:40:47.946Z,17.10
2023-03-13T15:44:50.101Z,17.10
2023-03-13T15:48:52.682Z,17.10
2023-03-13T15:52:58.264Z,17.10
2023-03-13T15:57:00.299Z,17.10
2023-03-13T16:01:08.415Z,17.10
2023-03-13T16:05:15.294Z,17.10
2023-03-13T16:09:20.075Z,17.00
2023-03-13T16:13:24.522Z,17.00
2023-03-13T16:17:28.504Z,17.00
2023-03-13T16:21:33.409Z,16.90
2023-03-13T16:25:36.074Z,16.90
2023-03-13T16:29:38.452Z,16.70
2023-03-13T16:33:40.318Z,16.60
2023-03-13T16:37:42.238Z,16.60
2023-03-13T16:41:44.123Z,16.50
2023-03-13T16:45:49.273Z,16.50
2023-03-13T16:49:54.400Z,16.40
2023-03-13T16:53:59.775Z,16.30
2023-03-13T16:58:04.884Z,16.20
2023-03-13T17:02:18.318Z,16.10
2023-03-13T17:06:26.465Z,16.00
2023-03-13T17:10:34.925Z,15.80
2023-03-13T17:14:39.071Z,15.70
2023-03-13T17:18:42.020Z,15.60
2023-03-13T17:22:47.703Z,15.60
2023-03-13T17:26:49.670Z,15.60
2023-03-13T17:30:51.535Z,15.50
2023-03-13T17:34:56.325Z,15.50
2023-03-13T17:39:01.418Z,15.50
2023-03-13T17:43:03.258Z,15.50
2023-03-13T17:47:15.675Z,15.50
2023-03-13T17:51:23.593Z,15.50
2023-03-13T17:55:28.127Z,15.50
2023-03-13T17:59:30.580Z,15.50
2023-03-13T18:03:32.648Z,15.50
2023-03-13T18:07:39.060Z,15.50
2023-03-13T18:11:41.483Z,15.50
2023-03-13T18:15:43.384Z,15.50
2023-03-13T18:19:46.161Z,15.40
2023-03-13T18:23:51.442Z,15.40
2023-03-13T18:27:55.571Z,15.30
2023-03-13T18:32:02.861Z,15.30
2023-03-13T18:36:19.561Z,15.30
2023-03-13T18:40:27.050Z,15.30
2023-03-13T18:44:33.554Z,15.20
2023-03-13T18:48:35.600Z,15.20
2023-03-13T18:52:40.642Z,15.20
2023-03-13T18:56:46.177Z,15.20
2023-03-13T19:00:48.195Z,15.20
2023-03-13T19:04:53.135Z,15.30
2023-03-13T19:09:41.539Z,15.30
2023-03-13T19:13:39.756Z,15.30
2023-03-13T19:17:41.644Z,15.40
2023-03-13T19:21:44.022Z,15.40
2023-03-13T19:25:47.032Z,15.40
2023-03-13T19:29:49.226Z,15.40
2023-03-13T19:33:54.881Z,15.40
2023-03-13T19:37:56.788Z,15.20
2023-03-13T19:41:58.859Z,14.80
2023-03-13T19:46:26.399Z,14.60
2023-03-13T19:50:28.308Z,14.50
2023-03-13T19:54:30.131Z,14.30
2023-03-13T19:58:31.951Z,14.20
2023-03-13T20:02:33.833Z,14.00
2023-03-13T20:06:36.115Z,13.90
2023-03-13T20:10:38.144Z,13.70
2023-03-13T20:14:40.578Z,13.70
2023-03-13T20:18:50.006Z,13.60
2023-03-13T20:22:54.230Z,13.60
2023-03-13T20:26:56.778Z,13.50
2023-03-13T20:31:03.255Z,13.30
2023-03-13T20:35:10.637Z,13.20
2023-03-13T20:39:12.722Z,13.10
2023-03-13T20:43:16.664Z,13.00
2023-03-13T20:47:18.442Z,12.90
2023-03-13T20:51:20.313Z,12.90
2023-03-13T20:55:22.315Z,12.90
2023-03-13T20:59:24.549Z,12.90
2023-03-13T21:03:26.962Z,12.90
2023-03-13T21:07:28.786Z,12.90
2023-03-13T21:11:30.584Z,13.00
2023-03-13T21:15:32.476Z,13.00
2023-03-13T21:19:34.565Z,13.00
2023-03-13T21:23:39.493Z,13.00
2023-03-13T21:27:43.816Z,13.00
2023-03-13T21:31:45.891Z,13.00
2023-03-13T21:35:49.148Z,13.00
2023-03-13T21:39:52.259Z,12.90
2023-03-13T21:43:55.825Z,12.90
2023-03-13T21:47:58.763Z,13.00
2023-03-13T21:52:00.575Z,13.00
2023-03-13T21:56:05.396Z,13.10
2023-03-13T22:00:10.776Z,13.10
2023-03-13T22:04:12.582Z,13.10
2023-03-13T22:08:14.601Z,13.10
2023-03-13T22:12:18.268Z,13.00
2023-03-13T22:16:21.188Z,13.00
2023-03-13T22:20:23.178Z,12.90
2023-03-13T22:24:25.620Z,12.90
2023-03-13T22:28:27.766Z,12.90
2023-03-13T22:32:30.299Z,12.80
2023-03-13T22:36:32.937Z,12.80
2023-03-13T22:40:35.401Z,12.80
2023-03-13T22:44:37.193Z,12.80
2023-03-13T22:48:40.096Z,12.70
2023-03-13T22:52:42.115Z,12.70
2023-03-13T22:56:44.078Z,12.70
2023-03-13T23:00:46.092Z,12.60
2023-03-13T23:04:48.006Z,12.60
2023-03-13T23:08:50.518Z,12.60
2023-03-13T23:12:52.361Z,12.60
2023-03-13T23:16:54.144Z,12.50
2023-03-13T23:20:55.945Z,12.50
2023-03-13T23:24:58.008Z,12.40
2023-03-13T23:28:59.876Z,12.40
2023-03-13T23:33:02.007Z,12.40
2023-03-13T23:37:03.828Z,12.50
2023-03-13T23:41:13.317Z,12.50
2023-03-13T23:45:15.222Z,12.50
2023-03-13T23:49:17.054Z,12.50
2023-03-13T23:53:18.983Z,12.40
2023-03-13T23:57:20.768Z,12.40
